sensor_id;sensor_type;location;lat;lon;timestamp;P1;durP1;ratioP1;P2;durP2;ratioP2
26106;SDS011;13866;50.748;12.630;2023-11-19T00:01:47;0.87;;;0.87;;
26106;SDS011;13866;50.748;12.630;2023-11-19T00:04:12;1.17;;;1.17;;
26106;SDS011;13866;50.748;12.630;2023-11-19T00:06:38;1.03;;;1.03;;
26106;SDS011;13866;50.748;12.630;2023-11-19T00:09:04;0.90;;;0.90;;
26106;SDS011;13866;50.748;12.630;2023-11-19T00:11:29;1.03;;;1.03;;
26106;SDS011;13866;50.748;12.630;2023-11-19T00:13:55;1.93;;;0.90;;
26106;SDS011;13866;50.748;12.630;2023-11-19T00:16:20;0.80;;;0.80;;
26106;SDS011;13866;50.748;12.630;2023-11-19T00:18:46;1.00;;;1.00;;
26106;SDS011;13866;50.748;12.630;2023-11-19T00:21:11;0.80;;;0.80;;
26106;SDS011;13866;50.748;12.630;2023-11-19T00:23:37;0.90;;;0.90;;
26106;SDS011;13866;50.748;12.630;2023-11-19T00:26:03;0.80;;;0.80;;
26106;SDS011;13866;50.748;12.630;2023-11-19T00:28:31;0.70;;;0.70;;
26106;SDS011;13866;50.748;12.630;2023-11-19T00:30:57;0.87;;;0.87;;
26106;SDS011;13866;50.748;12.630;2023-11-19T00:33:23;0.80;;;0.80;;
26106;SDS011;13866;50.748;12.630;2023-11-19T00:35:49;1.23;;;1.10;;
26106;SDS011;13866;50.748;12.630;2023-11-19T00:38:15;0.60;;;0.60;;
26106;SDS011;13866;50.748;12.630;2023-11-19T00:40:41;0.70;;;0.70;;
26106;SDS011;13866;50.748;12.630;2023-11-19T00:43:06;0.83;;;0.83;;
26106;SDS011;13866;50.748;12.630;2023-11-19T00:45:32;0.77;;;0.77;;
26106;SDS011;13866;50.748;12.630;2023-11-19T00:47:58;0.70;;;0.70;;
26106;SDS011;13866;50.748;12.630;2023-11-19T00:50:27;0.63;;;0.63;;
26106;SDS011;13866;50.748;12.630;2023-11-19T00:52:52;0.70;;;0.70;;
26106;SDS011;13866;50.748;12.630;2023-11-19T00:55:17;0.90;;;0.90;;
26106;SDS011;13866;50.748;12.630;2023-11-19T00:57:43;0.70;;;0.70;;
26106;SDS011;13866;50.748;12.630;2023-11-19T01:00:09;0.80;;;0.80;;
26106;SDS011;13866;50.748;12.630;2023-11-19T01:02:44;0.87;;;0.87;;
26106;SDS011;13866;50.748;12.630;2023-11-19T01:05:10;0.80;;;0.80;;
26106;SDS011;13866;50.748;12.630;2023-11-19T01:07:39;0.70;;;0.70;;
26106;SDS011;13866;50.748;12.630;2023-11-19T01:10:05;0.80;;;0.80;;
26106;SDS011;13866;50.748;12.630;2023-11-19T01:12:33;2.20;;;0.80;;
26106;SDS011;13866;50.748;12.630;2023-11-19T01:14:58;0.70;;;0.70;;
26106;SDS011;13866;50.748;12.630;2023-11-19T01:17:24;0.90;;;0.90;;
26106;SDS011;13866;50.748;12.630;2023-11-19T01:19:49;0.73;;;0.73;;
26106;SDS011;13866;50.748;12.630;2023-11-19T01:22:15;0.87;;;0.87;;
26106;SDS011;13866;50.748;12.630;2023-11-19T01:24:40;1.43;;;0.83;;
26106;SDS011;13866;50.748;12.630;2023-11-19T01:27:06;3.50;;;0.70;;
26106;SDS011;13866;50.748;12.630;2023-11-19T01:29:31;0.80;;;0.80;;
26106;SDS011;13866;50.748;12.630;2023-11-19T01:31:57;0.80;;;0.80;;
26106;SDS011;13866;50.748;12.630;2023-11-19T01:34:22;1.40;;;0.80;;
26106;SDS011;13866;50.748;12.630;2023-11-19T01:36:48;0.80;;;0.80;;
26106;SDS011;13866;50.748;12.630;2023-11-19T01:39:14;0.80;;;0.80;;
26106;SDS011;13866;50.748;12.630;2023-11-19T01:41:44;0.70;;;0.70;;
26106;SDS011;13866;50.748;12.630;2023-11-19T01:44:10;0.70;;;0.70;;
26106;SDS011;13866;50.748;12.630;2023-11-19T01:46:37;0.83;;;0.83;;
26106;SDS011;13866;50.748;12.630;2023-11-19T01:49:04;11.03;;;0.90;;
26106;SDS011;13866;50.748;12.630;2023-11-19T01:51:30;0.90;;;0.90;;
26106;SDS011;13866;50.748;12.630;2023-11-19T01:53:56;1.10;;;1.10;;
26106;SDS011;13866;50.748;12.630;2023-11-19T01:56:23;0.90;;;0.90;;
26106;SDS011;13866;50.748;12.630;2023-11-19T01:58:50;0.90;;;0.90;;
26106;SDS011;13866;50.748;12.630;2023-11-19T02:01:17;1.00;;;1.00;;
26106;SDS011;13866;50.748;12.630;2023-11-19T02:03:43;4.53;;;1.30;;
26106;SDS011;13866;50.748;12.630;2023-11-19T02:06:09;0.80;;;0.80;;
26106;SDS011;13866;50.748;12.630;2023-11-19T02:08:35;0.80;;;0.80;;
26106;SDS011;13866;50.748;12.630;2023-11-19T02:11:02;0.83;;;0.83;;
26106;SDS011;13866;50.748;12.630;2023-11-19T02:13:28;1.00;;;1.00;;
26106;SDS011;13866;50.748;12.630;2023-11-19T02:15:53;0.87;;;0.87;;
26106;SDS011;13866;50.748;12.630;2023-11-19T02:18:21;1.17;;;1.17;;
26106;SDS011;13866;50.748;12.630;2023-11-19T02:20:50;1.07;;;1.07;;
26106;SDS011;13866;50.748;12.630;2023-11-19T02:23:16;2.00;;;1.07;;
26106;SDS011;13866;50.748;12.630;2023-11-19T02:25:51;0.90;;;0.90;;
26106;SDS011;13866;50.748;12.630;2023-11-19T02:28:26;1.93;;;1.20;;
26106;SDS011;13866;50.748;12.630;2023-11-19T02:30:52;1.30;;;1.30;;
26106;SDS011;13866;50.748;12.630;2023-11-19T02:33:18;1.10;;;1.10;;
26106;SDS011;13866;50.748;12.630;2023-11-19T02:35:43;0.90;;;0.90;;
26106;SDS011;13866;50.748;12.630;2023-11-19T02:38:09;1.03;;;1.03;;
26106;SDS011;13866;50.748;12.630;2023-11-19T02:40:36;1.00;;;1.00;;
26106;SDS011;13866;50.748;12.630;2023-11-19T02:43:01;1.30;;;1.30;;
26106;SDS011;13866;50.748;12.630;2023-11-19T02:45:29;1.50;;;1.40;;
26106;SDS011;13866;50.748;12.630;2023-11-19T02:47:56;0.90;;;0.90;;
26106;SDS011;13866;50.748;12.630;2023-11-19T02:50:21;0.93;;;0.93;;
26106;SDS011;13866;50.748;12.630;2023-11-19T02:52:51;0.93;;;0.93;;
26106;SDS011;13866;50.748;12.630;2023-11-19T02:55:18;2.20;;;1.00;;
26106;SDS011;13866;50.748;12.630;2023-11-19T02:57:44;0.90;;;0.90;;
26106;SDS011;13866;50.748;12.630;2023-11-19T03:00:14;0.90;;;0.90;;
26106;SDS011;13866;50.748;12.630;2023-11-19T03:02:48;0.80;;;0.80;;
26106;SDS011;13866;50.748;12.630;2023-11-19T03:05:23;0.80;;;0.80;;
26106;SDS011;13866;50.748;12.630;2023-11-19T03:07:49;0.87;;;0.87;;
26106;SDS011;13866;50.748;12.630;2023-11-19T03:10:14;0.70;;;0.70;;
26106;SDS011;13866;50.748;12.630;2023-11-19T03:12:40;0.80;;;0.80;;
26106;SDS011;13866;50.748;12.630;2023-11-19T03:15:06;1.03;;;0.93;;
26106;SDS011;13866;50.748;12.630;2023-11-19T03:17:34;0.90;;;0.90;;
26106;SDS011;13866;50.748;12.630;2023-11-19T03:20:09;0.70;;;0.70;;
26106;SDS011;13866;50.748;12.630;2023-11-19T03:22:42;0.97;;;0.97;;
26106;SDS011;13866;50.748;12.630;2023-11-19T03:25:09;0.83;;;0.83;;
26106;SDS011;13866;50.748;12.630;2023-11-19T03:27:38;0.90;;;0.90;;
26106;SDS011;13866;50.748;12.630;2023-11-19T03:30:05;0.70;;;0.70;;
26106;SDS011;13866;50.748;12.630;2023-11-19T03:32:31;0.80;;;0.80;;
26106;SDS011;13866;50.748;12.630;2023-11-19T03:34:57;0.87;;;0.87;;
26106;SDS011;13866;50.748;12.630;2023-11-19T03:37:23;1.00;;;1.00;;
26106;SDS011;13866;50.748;12.630;2023-11-19T03:39:49;0.93;;;0.93;;
26106;SDS011;13866;50.748;12.630;2023-11-19T03:42:14;0.80;;;0.80;;
26106;SDS011;13866;50.748;12.630;2023-11-19T03:44:40;0.77;;;0.77;;
26106;SDS011;13866;50.748;12.630;2023-11-19T03:47:05;0.80;;;0.80;;
26106;SDS011;13866;50.748;12.630;2023-11-19T03:49:31;0.73;;;0.73;;
26106;SDS011;13866;50.748;12.630;2023-11-19T03:51:57;0.90;;;0.90;;
26106;SDS011;13866;50.748;12.630;2023-11-19T03:54:22;0.80;;;0.80;;
26106;SDS011;13866;50.748;12.630;2023-11-19T03:56:48;0.70;;;0.70;;
26106;SDS011;13866;50.748;12.630;2023-11-19T03:59:13;0.97;;;0.97;;
26106;SDS011;13866;50.748;12.630;2023-11-19T04:01:40;0.80;;;0.80;;
26106;SDS011;13866;50.748;12.630;2023-11-19T04:04:06;0.70;;;0.70;;
26106;SDS011;13866;50.748;12.630;2023-11-19T04:06:31;0.70;;;0.70;;
26106;SDS011;13866;50.748;12.630;2023-11-19T04:08:57;0.70;;;0.70;;
26106;SDS011;13866;50.748;12.630;2023-11-19T04:11:22;0.70;;;0.70;;
26106;SDS011;13866;50.748;12.630;2023-11-19T04:13:48;0.70;;;0.70;;
26106;SDS011;13866;50.748;12.630;2023-11-19T04:16:14;1.90;;;0.83;;
26106;SDS011;13866;50.748;12.630;2023-11-19T04:18:39;1.27;;;0.70;;
26106;SDS011;13866;50.748;12.630;2023-11-19T04:21:06;0.87;;;0.70;;
26106;SDS011;13866;50.748;12.630;2023-11-19T04:23:34;1.90;;;0.80;;
26106;SDS011;13866;50.748;12.630;2023-11-19T04:26:02;0.70;;;0.70;;
26106;SDS011;13866;50.748;12.630;2023-11-19T04:28:29;0.90;;;0.90;;
26106;SDS011;13866;50.748;12.630;2023-11-19T04:30:55;0.87;;;0.87;;
26106;SDS011;13866;50.748;12.630;2023-11-19T04:33:21;0.80;;;0.80;;
26106;SDS011;13866;50.748;12.630;2023-11-19T04:35:46;0.80;;;0.80;;
26106;SDS011;13866;50.748;12.630;2023-11-19T04:38:12;0.87;;;0.87;;
26106;SDS011;13866;50.748;12.630;2023-11-19T04:40:37;1.80;;;0.70;;
26106;SDS011;13866;50.748;12.630;2023-11-19T04:43:03;0.80;;;0.80;;
26106;SDS011;13866;50.748;12.630;2023-11-19T04:45:28;0.90;;;0.90;;
26106;SDS011;13866;50.748;12.630;2023-11-19T04:47:54;0.80;;;0.80;;
26106;SDS011;13866;50.748;12.630;2023-11-19T04:50:19;3.80;;;0.90;;
26106;SDS011;13866;50.748;12.630;2023-11-19T04:52:45;0.80;;;0.80;;
26106;SDS011;13866;50.748;12.630;2023-11-19T04:55:12;0.70;;;0.70;;
26106;SDS011;13866;50.748;12.630;2023-11-19T04:57:39;0.80;;;0.80;;
26106;SDS011;13866;50.748;12.630;2023-11-19T05:00:05;0.77;;;0.77;;
26106;SDS011;13866;50.748;12.630;2023-11-19T05:02:32;0.90;;;0.90;;
26106;SDS011;13866;50.748;12.630;2023-11-19T05:04:58;1.17;;;0.80;;
26106;SDS011;13866;50.748;12.630;2023-11-19T05:07:23;0.67;;;0.67;;
26106;SDS011;13866;50.748;12.630;2023-11-19T05:09:49;1.00;;;1.00;;
26106;SDS011;13866;50.748;12.630;2023-11-19T05:12:14;0.77;;;0.77;;
26106;SDS011;13866;50.748;12.630;2023-11-19T05:14:40;0.90;;;0.90;;
26106;SDS011;13866;50.748;12.630;2023-11-19T05:17:05;0.80;;;0.80;;
26106;SDS011;13866;50.748;12.630;2023-11-19T05:19:32;0.73;;;0.73;;
26106;SDS011;13866;50.748;12.630;2023-11-19T05:21:58;0.73;;;0.73;;
26106;SDS011;13866;50.748;12.630;2023-11-19T05:24:23;0.70;;;0.70;;
26106;SDS011;13866;50.748;12.630;2023-11-19T05:26:49;0.70;;;0.70;;
26106;SDS011;13866;50.748;12.630;2023-11-19T05:29:15;0.70;;;0.70;;
26106;SDS011;13866;50.748;12.630;2023-11-19T05:31:41;0.70;;;0.70;;
26106;SDS011;13866;50.748;12.630;2023-11-19T05:34:07;0.60;;;0.60;;
26106;SDS011;13866;50.748;12.630;2023-11-19T05:36:32;2.67;;;0.87;;
26106;SDS011;13866;50.748;12.630;2023-11-19T05:38:58;0.90;;;0.90;;
26106;SDS011;13866;50.748;12.630;2023-11-19T05:41:23;0.70;;;0.70;;
26106;SDS011;13866;50.748;12.630;2023-11-19T05:43:49;2.90;;;0.80;;
26106;SDS011;13866;50.748;12.630;2023-11-19T05:46:14;0.70;;;0.70;;
26106;SDS011;13866;50.748;12.630;2023-11-19T05:48:41;0.60;;;0.60;;
26106;SDS011;13866;50.748;12.630;2023-11-19T05:51:07;1.83;;;0.60;;
26106;SDS011;13866;50.748;12.630;2023-11-19T05:53:32;0.80;;;0.80;;
26106;SDS011;13866;50.748;12.630;2023-11-19T05:55:58;0.60;;;0.60;;
26106;SDS011;13866;50.748;12.630;2023-11-19T05:58:24;0.70;;;0.70;;
26106;SDS011;13866;50.748;12.630;2023-11-19T06:00:51;3.50;;;0.70;;
26106;SDS011;13866;50.748;12.630;2023-11-19T06:03:16;0.50;;;0.50;;
26106;SDS011;13866;50.748;12.630;2023-11-19T06:05:44;1.03;;;0.60;;
26106;SDS011;13866;50.748;12.630;2023-11-19T06:08:11;2.07;;;0.67;;
26106;SDS011;13866;50.748;12.630;2023-11-19T06:10:38;0.50;;;0.50;;
26106;SDS011;13866;50.748;12.630;2023-11-19T06:13:07;0.70;;;0.70;;
26106;SDS011;13866;50.748;12.630;2023-11-19T06:15:35;1.90;;;0.80;;
26106;SDS011;13866;50.748;12.630;2023-11-19T06:18:01;0.70;;;0.70;;
26106;SDS011;13866;50.748;12.630;2023-11-19T06:20:28;0.60;;;0.60;;
26106;SDS011;13866;50.748;12.630;2023-11-19T06:22:57;0.90;;;0.90;;
26106;SDS011;13866;50.748;12.630;2023-11-19T06:25:23;0.80;;;0.80;;
26106;SDS011;13866;50.748;12.630;2023-11-19T06:27:49;1.20;;;1.20;;
26106;SDS011;13866;50.748;12.630;2023-11-19T06:30:15;0.90;;;0.90;;
26106;SDS011;13866;50.748;12.630;2023-11-19T06:32:40;0.60;;;0.60;;
26106;SDS011;13866;50.748;12.630;2023-11-19T06:35:06;1.03;;;0.90;;
26106;SDS011;13866;50.748;12.630;2023-11-19T06:37:32;0.60;;;0.60;;
26106;SDS011;13866;50.748;12.630;2023-11-19T06:39:58;0.60;;;0.60;;
26106;SDS011;13866;50.748;12.630;2023-11-19T06:42:24;0.70;;;0.70;;
26106;SDS011;13866;50.748;12.630;2023-11-19T06:44:49;0.60;;;0.60;;
26106;SDS011;13866;50.748;12.630;2023-11-19T06:47:16;0.70;;;0.70;;
26106;SDS011;13866;50.748;12.630;2023-11-19T06:49:43;0.60;;;0.60;;
26106;SDS011;13866;50.748;12.630;2023-11-19T06:52:09;0.60;;;0.60;;
26106;SDS011;13866;50.748;12.630;2023-11-19T06:54:35;0.70;;;0.70;;
26106;SDS011;13866;50.748;12.630;2023-11-19T06:57:00;0.63;;;0.63;;
26106;SDS011;13866;50.748;12.630;2023-11-19T06:59:26;0.70;;;0.70;;
26106;SDS011;13866;50.748;12.630;2023-11-19T07:01:51;0.60;;;0.60;;
26106;SDS011;13866;50.748;12.630;2023-11-19T07:04:17;0.80;;;0.80;;
26106;SDS011;13866;50.748;12.630;2023-11-19T07:06:42;0.70;;;0.70;;
26106;SDS011;13866;50.748;12.630;2023-11-19T07:09:08;0.80;;;0.80;;
26106;SDS011;13866;50.748;12.630;2023-11-19T07:11:37;2.37;;;0.73;;
26106;SDS011;13866;50.748;12.630;2023-11-19T07:14:07;0.80;;;0.80;;
26106;SDS011;13866;50.748;12.630;2023-11-19T07:16:33;0.83;;;0.83;;
26106;SDS011;13866;50.748;12.630;2023-11-19T07:19:00;0.80;;;0.80;;
26106;SDS011;13866;50.748;12.630;2023-11-19T07:21:26;2.83;;;0.87;;
26106;SDS011;13866;50.748;12.630;2023-11-19T07:23:53;0.90;;;0.90;;
26106;SDS011;13866;50.748;12.630;2023-11-19T07:26:19;0.80;;;0.80;;
26106;SDS011;13866;50.748;12.630;2023-11-19T07:28:44;1.00;;;1.00;;
26106;SDS011;13866;50.748;12.630;2023-11-19T07:31:10;0.80;;;0.80;;
26106;SDS011;13866;50.748;12.630;2023-11-19T07:33:36;1.00;;;1.00;;
26106;SDS011;13866;50.748;12.630;2023-11-19T07:36:02;1.00;;;1.00;;
26106;SDS011;13866;50.748;12.630;2023-11-19T07:38:27;1.07;;;1.07;;
26106;SDS011;13866;50.748;12.630;2023-11-19T07:40:53;0.97;;;0.97;;
26106;SDS011;13866;50.748;12.630;2023-11-19T07:43:19;1.50;;;1.50;;
26106;SDS011;13866;50.748;12.630;2023-11-19T07:45:44;1.20;;;1.20;;
26106;SDS011;13866;50.748;12.630;2023-11-19T07:48:10;1.07;;;1.07;;
26106;SDS011;13866;50.748;12.630;2023-11-19T07:50:38;0.90;;;0.90;;
26106;SDS011;13866;50.748;12.630;2023-11-19T07:53:05;0.90;;;0.90;;
26106;SDS011;13866;50.748;12.630;2023-11-19T07:55:32;0.90;;;0.90;;
26106;SDS011;13866;50.748;12.630;2023-11-19T07:57:58;0.83;;;0.83;;
26106;SDS011;13866;50.748;12.630;2023-11-19T08:00:23;0.83;;;0.83;;
26106;SDS011;13866;50.748;12.630;2023-11-19T08:02:49;1.10;;;1.07;;
26106;SDS011;13866;50.748;12.630;2023-11-19T08:05:14;1.20;;;1.20;;
26106;SDS011;13866;50.748;12.630;2023-11-19T08:07:40;0.90;;;0.90;;
26106;SDS011;13866;50.748;12.630;2023-11-19T08:10:06;2.57;;;1.07;;
26106;SDS011;13866;50.748;12.630;2023-11-19T08:12:34;2.87;;;1.30;;
26106;SDS011;13866;50.748;12.630;2023-11-19T08:15:01;2.63;;;2.53;;
26106;SDS011;13866;50.748;12.630;2023-11-19T08:17:27;0.97;;;0.97;;
26106;SDS011;13866;50.748;12.630;2023-11-19T08:19:53;4.73;;;0.90;;
26106;SDS011;13866;50.748;12.630;2023-11-19T08:22:18;0.80;;;0.80;;
26106;SDS011;13866;50.748;12.630;2023-11-19T08:24:43;1.90;;;1.90;;
26106;SDS011;13866;50.748;12.630;2023-11-19T08:27:09;1.47;;;1.47;;
26106;SDS011;13866;50.748;12.630;2023-11-19T08:29:35;1.00;;;1.00;;
26106;SDS011;13866;50.748;12.630;2023-11-19T08:32:01;1.43;;;1.43;;
26106;SDS011;13866;50.748;12.630;2023-11-19T08:34:29;1.90;;;1.90;;
26106;SDS011;13866;50.748;12.630;2023-11-19T08:36:55;4.67;;;4.53;;
26106;SDS011;13866;50.748;12.630;2023-11-19T08:39:21;0.70;;;0.70;;
26106;SDS011;13866;50.748;12.630;2023-11-19T08:41:47;2.70;;;2.50;;
26106;SDS011;13866;50.748;12.630;2023-11-19T08:44:13;5.20;;;2.70;;
26106;SDS011;13866;50.748;12.630;2023-11-19T08:46:45;2.37;;;2.17;;
26106;SDS011;13866;50.748;12.630;2023-11-19T08:49:12;2.00;;;1.30;;
26106;SDS011;13866;50.748;12.630;2023-11-19T08:51:37;1.63;;;1.63;;
26106;SDS011;13866;50.748;12.630;2023-11-19T08:54:03;1.50;;;1.50;;
26106;SDS011;13866;50.748;12.630;2023-11-19T08:56:28;2.93;;;2.03;;
26106;SDS011;13866;50.748;12.630;2023-11-19T08:58:57;2.00;;;2.00;;
26106;SDS011;13866;50.748;12.630;2023-11-19T09:01:23;2.93;;;1.17;;
26106;SDS011;13866;50.748;12.630;2023-11-19T09:03:49;1.60;;;1.60;;
26106;SDS011;13866;50.748;12.630;2023-11-19T09:06:15;3.40;;;1.57;;
26106;SDS011;13866;50.748;12.630;2023-11-19T09:08:41;4.90;;;4.47;;
26106;SDS011;13866;50.748;12.630;2023-11-19T09:11:07;1.93;;;1.83;;
26106;SDS011;13866;50.748;12.630;2023-11-19T09:13:34;1.73;;;1.20;;
26106;SDS011;13866;50.748;12.630;2023-11-19T09:15:59;1.57;;;1.57;;
26106;SDS011;13866;50.748;12.630;2023-11-19T09:18:28;1.00;;;1.00;;
26106;SDS011;13866;50.748;12.630;2023-11-19T09:20:54;2.80;;;1.17;;
26106;SDS011;13866;50.748;12.630;2023-11-19T09:23:20;1.50;;;1.50;;
26106;SDS011;13866;50.748;12.630;2023-11-19T09:25:45;2.00;;;1.70;;
26106;SDS011;13866;50.748;12.630;2023-11-19T09:28:11;2.27;;;1.53;;
26106;SDS011;13866;50.748;12.630;2023-11-19T09:30:38;1.93;;;1.83;;
26106;SDS011;13866;50.748;12.630;2023-11-19T09:33:03;1.33;;;1.03;;
26106;SDS011;13866;50.748;12.630;2023-11-19T09:35:29;1.13;;;1.13;;
26106;SDS011;13866;50.748;12.630;2023-11-19T09:37:54;1.50;;;1.40;;
26106;SDS011;13866;50.748;12.630;2023-11-19T09:40:20;1.50;;;1.40;;
26106;SDS011;13866;50.748;12.630;2023-11-19T09:42:45;1.10;;;1.07;;
26106;SDS011;13866;50.748;12.630;2023-11-19T09:45:13;1.00;;;1.00;;
26106;SDS011;13866;50.748;12.630;2023-11-19T09:47:42;1.13;;;1.13;;
26106;SDS011;13866;50.748;12.630;2023-11-19T09:50:10;8.70;;;1.30;;
26106;SDS011;13866;50.748;12.630;2023-11-19T09:52:42;1.07;;;1.07;;
26106;SDS011;13866;50.748;12.630;2023-11-19T09:55:08;0.97;;;0.97;;
26106;SDS011;13866;50.748;12.630;2023-11-19T09:57:33;1.27;;;1.27;;
26106;SDS011;13866;50.748;12.630;2023-11-19T10:00:02;1.10;;;1.10;;
26106;SDS011;13866;50.748;12.630;2023-11-19T10:02:30;0.93;;;0.93;;
26106;SDS011;13866;50.748;12.630;2023-11-19T10:04:57;1.00;;;1.00;;
26106;SDS011;13866;50.748;12.630;2023-11-19T10:07:24;1.20;;;1.20;;
26106;SDS011;13866;50.748;12.630;2023-11-19T10:09:50;2.90;;;1.97;;
26106;SDS011;13866;50.748;12.630;2023-11-19T10:12:15;7.43;;;1.07;;
26106;SDS011;13866;50.748;12.630;2023-11-19T10:14:41;1.40;;;1.30;;
26106;SDS011;13866;50.748;12.630;2023-11-19T10:17:09;6.30;;;1.50;;
26106;SDS011;13866;50.748;12.630;2023-11-19T10:19:34;1.53;;;1.53;;
26106;SDS011;13866;50.748;12.630;2023-11-19T10:22:06;1.47;;;1.37;;
26106;SDS011;13866;50.748;12.630;2023-11-19T10:24:32;3.43;;;1.67;;
26106;SDS011;13866;50.748;12.630;2023-11-19T10:26:59;4.00;;;1.93;;
26106;SDS011;13866;50.748;12.630;2023-11-19T10:29:29;1.60;;;1.60;;
26106;SDS011;13866;50.748;12.630;2023-11-19T10:31:58;1.60;;;1.50;;
26106;SDS011;13866;50.748;12.630;2023-11-19T10:34:24;6.70;;;2.53;;
26106;SDS011;13866;50.748;12.630;2023-11-19T10:36:51;1.77;;;1.30;;
26106;SDS011;13866;50.748;12.630;2023-11-19T10:39:16;1.97;;;1.87;;
26106;SDS011;13866;50.748;12.630;2023-11-19T10:41:43;1.30;;;1.30;;
26106;SDS011;13866;50.748;12.630;2023-11-19T10:44:08;1.77;;;1.50;;
26106;SDS011;13866;50.748;12.630;2023-11-19T10:46:38;3.10;;;1.77;;
26106;SDS011;13866;50.748;12.630;2023-11-19T10:49:05;2.83;;;1.47;;
26106;SDS011;13866;50.748;12.630;2023-11-19T10:51:31;8.20;;;4.20;;
26106;SDS011;13866;50.748;12.630;2023-11-19T10:54:04;4.87;;;2.47;;
26106;SDS011;13866;50.748;12.630;2023-11-19T10:56:31;2.73;;;2.53;;
26106;SDS011;13866;50.748;12.630;2023-11-19T10:58:57;3.43;;;2.17;;
26106;SDS011;13866;50.748;12.630;2023-11-19T11:01:33;18.77;;;2.00;;
26106;SDS011;13866;50.748;12.630;2023-11-19T11:04:05;11.33;;;2.90;;
26106;SDS011;13866;50.748;12.630;2023-11-19T11:06:39;6.53;;;2.60;;
26106;SDS011;13866;50.748;12.630;2023-11-19T11:09:05;7.50;;;4.67;;
26106;SDS011;13866;50.748;12.630;2023-11-19T11:11:31;3.77;;;3.40;;
26106;SDS011;13866;50.748;12.630;2023-11-19T11:13:57;4.47;;;4.07;;
26106;SDS011;13866;50.748;12.630;2023-11-19T11:16:24;4.83;;;2.67;;
26106;SDS011;13866;50.748;12.630;2023-11-19T11:18:50;3.93;;;2.40;;
26106;SDS011;13866;50.748;12.630;2023-11-19T11:21:17;5.63;;;2.20;;
26106;SDS011;13866;50.748;12.630;2023-11-19T11:24:09;2.87;;;2.40;;
26106;SDS011;13866;50.748;12.630;2023-11-19T11:26:49;14.80;;;2.33;;
26106;SDS011;13866;50.748;12.630;2023-11-19T11:29:41;6.20;;;2.50;;
26106;SDS011;13866;50.748;12.630;2023-11-19T11:38:16;6.27;;;3.10;;
26106;SDS011;13866;50.748;12.630;2023-11-19T11:46:53;2.30;;;2.20;;
26106;SDS011;13866;50.748;12.630;2023-11-19T11:54:09;2.37;;;2.23;;
26106;SDS011;13866;50.748;12.630;2023-11-19T11:57:03;4.87;;;2.50;;
26106;SDS011;13866;50.748;12.630;2023-11-19T12:02:11;2.93;;;2.23;;
26106;SDS011;13866;50.748;12.630;2023-11-19T12:04:39;5.23;;;3.50;;
26106;SDS011;13866;50.748;12.630;2023-11-19T12:07:06;9.00;;;3.90;;
26106;SDS011;13866;50.748;12.630;2023-11-19T12:09:36;2.50;;;2.40;;
26106;SDS011;13866;50.748;12.630;2023-11-19T12:20:01;4.00;;;2.27;;
26106;SDS011;13866;50.748;12.630;2023-11-19T12:22:30;6.60;;;2.43;;
26106;SDS011;13866;50.748;12.630;2023-11-19T12:24:55;6.60;;;2.80;;
26106;SDS011;13866;50.748;12.630;2023-11-19T12:27:21;4.57;;;2.73;;
26106;SDS011;13866;50.748;12.630;2023-11-19T12:29:47;6.97;;;4.03;;
26106;SDS011;13866;50.748;12.630;2023-11-19T12:32:16;3.87;;;3.40;;
26106;SDS011;13866;50.748;12.630;2023-11-19T12:34:41;6.10;;;3.73;;
26106;SDS011;13866;50.748;12.630;2023-11-19T12:37:07;6.03;;;2.80;;
26106;SDS011;13866;50.748;12.630;2023-11-19T12:39:34;4.33;;;3.53;;
26106;SDS011;13866;50.748;12.630;2023-11-19T12:41:59;12.77;;;3.37;;
26106;SDS011;13866;50.748;12.630;2023-11-19T12:44:25;9.27;;;3.57;;
26106;SDS011;13866;50.748;12.630;2023-11-19T12:47:03;10.43;;;3.73;;
26106;SDS011;13866;50.748;12.630;2023-11-19T12:49:31;18.60;;;3.20;;
26106;SDS011;13866;50.748;12.630;2023-11-19T12:51:57;11.67;;;3.40;;
26106;SDS011;13866;50.748;12.630;2023-11-19T12:54:35;6.83;;;4.33;;
26106;SDS011;13866;50.748;12.630;2023-11-19T12:57:01;9.30;;;3.77;;
26106;SDS011;13866;50.748;12.630;2023-11-19T12:59:28;8.63;;;4.00;;
26106;SDS011;13866;50.748;12.630;2023-11-19T13:01:54;16.33;;;4.77;;
26106;SDS011;13866;50.748;12.630;2023-11-19T13:04:20;11.10;;;4.70;;
26106;SDS011;13866;50.748;12.630;2023-11-19T13:06:46;13.10;;;4.47;;
26106;SDS011;13866;50.748;12.630;2023-11-19T13:09:21;7.30;;;4.77;;
26106;SDS011;13866;50.748;12.630;2023-11-19T13:11:47;20.23;;;4.90;;
26106;SDS011;13866;50.748;12.630;2023-11-19T13:14:13;6.73;;;5.00;;
26106;SDS011;13866;50.748;12.630;2023-11-19T13:16:38;11.10;;;5.40;;
26106;SDS011;13866;50.748;12.630;2023-11-19T13:19:04;6.10;;;5.33;;
26106;SDS011;13866;50.748;12.630;2023-11-19T13:21:30;9.40;;;3.80;;
26106;SDS011;13866;50.748;12.630;2023-11-19T13:23:56;13.83;;;4.87;;
26106;SDS011;13866;50.748;12.630;2023-11-19T13:26:22;16.10;;;4.40;;
26106;SDS011;13866;50.748;12.630;2023-11-19T13:28:47;7.10;;;4.43;;
26106;SDS011;13866;50.748;12.630;2023-11-19T13:31:14;14.80;;;3.70;;
26106;SDS011;13866;50.748;12.630;2023-11-19T13:33:39;17.13;;;8.10;;
26106;SDS011;13866;50.748;12.630;2023-11-19T13:36:06;9.10;;;7.73;;
26106;SDS011;13866;50.748;12.630;2023-11-19T13:38:33;10.83;;;7.10;;
26106;SDS011;13866;50.748;12.630;2023-11-19T13:41:00;13.27;;;8.37;;
26106;SDS011;13866;50.748;12.630;2023-11-19T13:43:26;13.00;;;6.33;;
26106;SDS011;13866;50.748;12.630;2023-11-19T13:45:55;6.63;;;4.53;;
26106;SDS011;13866;50.748;12.630;2023-11-19T13:48:21;14.57;;;6.53;;
26106;SDS011;13866;50.748;12.630;2023-11-19T13:50:47;15.60;;;8.13;;
26106;SDS011;13866;50.748;12.630;2023-11-19T13:53:12;15.30;;;8.97;;
26106;SDS011;13866;50.748;12.630;2023-11-19T13:55:38;7.73;;;6.40;;
26106;SDS011;13866;50.748;12.630;2023-11-19T13:58:03;20.00;;;15.07;;
26106;SDS011;13866;50.748;12.630;2023-11-19T14:00:30;34.50;;;27.20;;
26106;SDS011;13866;50.748;12.630;2023-11-19T14:02:56;8.13;;;5.20;;
26106;SDS011;13866;50.748;12.630;2023-11-19T14:05:21;6.27;;;4.17;;
26106;SDS011;13866;50.748;12.630;2023-11-19T14:07:48;5.57;;;3.20;;
26106;SDS011;13866;50.748;12.630;2023-11-19T14:10:14;8.60;;;2.67;;
26106;SDS011;13866;50.748;12.630;2023-11-19T14:12:40;6.97;;;2.70;;
26106;SDS011;13866;50.748;12.630;2023-11-19T14:15:06;4.30;;;2.27;;
26106;SDS011;13866;50.748;12.630;2023-11-19T14:17:33;15.53;;;2.70;;
26106;SDS011;13866;50.748;12.630;2023-11-19T14:19:59;5.50;;;2.20;;
26106;SDS011;13866;50.748;12.630;2023-11-19T14:22:24;2.90;;;1.70;;
26106;SDS011;13866;50.748;12.630;2023-11-19T14:24:50;4.93;;;2.90;;
26106;SDS011;13866;50.748;12.630;2023-11-19T14:27:16;11.10;;;3.40;;
26106;SDS011;13866;50.748;12.630;2023-11-19T14:29:44;8.37;;;3.33;;
26106;SDS011;13866;50.748;12.630;2023-11-19T14:32:10;7.20;;;2.60;;
26106;SDS011;13866;50.748;12.630;2023-11-19T14:34:36;9.93;;;3.93;;
26106;SDS011;13866;50.748;12.630;2023-11-19T14:37:01;5.00;;;2.50;;
26106;SDS011;13866;50.748;12.630;2023-11-19T14:39:27;5.27;;;3.07;;
26106;SDS011;13866;50.748;12.630;2023-11-19T14:41:55;8.60;;;3.67;;
26106;SDS011;13866;50.748;12.630;2023-11-19T14:44:26;10.97;;;2.40;;
26106;SDS011;13866;50.748;12.630;2023-11-19T14:46:52;7.80;;;3.03;;
26106;SDS011;13866;50.748;12.630;2023-11-19T14:49:17;8.87;;;4.50;;
26106;SDS011;13866;50.748;12.630;2023-11-19T14:51:43;15.13;;;10.57;;
26106;SDS011;13866;50.748;12.630;2023-11-19T14:54:08;20.27;;;6.83;;
26106;SDS011;13866;50.748;12.630;2023-11-19T14:56:34;15.13;;;13.57;;
26106;SDS011;13866;50.748;12.630;2023-11-19T14:58:59;11.97;;;8.77;;